Latest Coastal Weather Observations for Port Fairy

IDV60701

Issued at 4:22 am EDT Monday 23 October 2017 (issued every 10 minutes, with the page automatically refreshed every 10 minutes)

About coastal observations | Map of coastal stations | Coastal observations for VIC | Marine services | Other Formats
Station Details ID: 090175 Name: PORT FAIRY AWS Lat: -38.39 Lon: 142.23 Height: 10.0 m
Data from the previous 72 hours. | See also: Recent months at Port Fairy
Date/Time
EDT
Temp
°C
Wind Pressure Rain since
9am
mm
Weather Cloud Vis
km
Sea
Height
m
Swell
Dir  Spd
kts
Gust
kts
hPa Trend Height
m
Period
s
Dir
23/04:00am 12.2 SW 9 13 1019.2 - 0.0 - - - - - - -
23/03:30am 11.8 SSW 8 13 1019.0 - 0.0 - - - - - - -
23/03:00am 12.3 SW 7 9 1019.2 - 0.0 - - - - - - -
23/02:30am 11.9 SW 9 12 1019.3 - 0.0 - - - - - - -
23/02:00am 12.4 WSW 6 10 1019.4 - 0.0 - - - - - - -
23/01:30am 12.2 WSW 6 8 1019.8 - 0.0 - - - - - - -
23/01:00am 12.2 SW 8 11 1020.0 - 0.0 - - - - - - -
23/12:30am 12.3 SW 7 10 1020.0 - 0.0 - - - - - - -
23/12:00am 12.1 SW 4 7 1020.1 - 0.0 - - - - - - -
 
Date/Time
EDT
Temp
°C
Wind Pressure Rain since
9am
mm
Weather Cloud Vis
km
Sea
Height
m
Swell
Dir  Spd
kts
Gust
kts
hPa Trend Height
m
Period
s
Dir
22/11:30pm 12.8 SW 7 10 1020.3 - 0.0 - - - - - - -
22/11:00pm 12.5 SW 6 8 1020.4 - 0.0 - - - - - - -
22/10:30pm 12.7 SW 6 8 1020.4 - 0.0 - - - - - - -
22/10:00pm 12.6 SSW 6 8 1020.4 - 0.0 - - - - - - -
22/09:30pm 12.5 SSW 7 9 1020.4 - 0.0 - - - - - - -
22/09:00pm 12.3 SSW 6 8 1020.3 - 0.0 - - - - - - -
22/08:30pm 12.9 SW 8 12 1020.2 - 0.0 - - - - - - -
22/08:00pm 12.5 SW 7 11 1020.0 - 0.0 - - - - - - -
22/07:30pm 12.9 SW 9 12 1019.7 - 0.0 - - - - - - -
22/07:00pm 13.5 SSW 8 12 1019.5 - 0.0 - - - - - - -
22/06:30pm 13.2 SW 10 15 1019.5 - 0.0 - - - - - - -
22/06:00pm 13.1 SW 11 15 1019.4 - 0.0 - - - - - - -
22/05:30pm 14.4 SSW 9 13 1019.2 - 0.0 - - - - - - -
22/05:00pm 14.4 SW 7 9 1019.1 - 0.0 - - - - - - -
22/04:30pm 14.9 SW 9 12 1019.0 - 0.0 - - - - - - -
22/04:00pm 14.9 SW 9 11 1019.1 - 0.0 - - - - - - -
22/03:30pm 15.1 SW 10 12 1019.1 - 0.0 - - - - - - -
22/03:00pm 16.5 SW 9 13 1019.3 - 0.0 - - - - - - -
22/02:30pm 15.3 SW 11 14 1019.5 - 0.0 - - - - - - -
22/02:00pm 15.2 SW 10 13 1019.6 - 0.0 - - - - - - -
22/01:30pm 15.9 SW 11 14 1019.6 - 0.0 - - - - - - -
22/01:00pm 15.4 SW 10 13 1019.4 - 0.0 - - - - - - -
22/12:30pm 15.6 SW 12 17 1019.9 - 0.0 - - - - - - -
22/12:00pm 14.9 SW 10 13 1020.2 - 0.0 - - - - - - -
22/11:30am 13.9 SW 11 16 1020.3 - 0.0 - - - - - - -
22/11:00am 14.4 SW 11 14 1020.3 - 0.0 - - - - - - -
22/10:30am 14.4 SW 12 15 1020.4 - 0.0 - - - - - - -
22/10:00am 13.1 SW 13 17 1020.1 - 0.0 - - - - - - -
22/09:30am 13.0 SW 12 16 1020.0 - 0.0 - - - - - - -
22/09:00am 13.0 SW 12 15 1019.9 - 0.0 - - - - - - -
22/08:30am 12.7 SW 12 16 1019.9 - 0.0 - - - - - - -
22/08:00am 12.5 SW 14 19 1019.7 - 0.0 - - - - - - -
22/07:30am 12.4 WSW 13 17 1019.5 - 0.0 - - - - - - -
22/07:00am 12.2 SW 12 16 1019.3 - 0.0 - - - - - - -
22/06:30am 12.3 WSW 13 18 1019.1 - 0.0 - - - - - - -
22/06:00am 12.3 WSW 11 15 1019.0 - 0.0 - - - - - - -
22/05:30am 12.3 SW 11 16 1019.0 - 0.0 - - - - - - -
22/05:00am 12.2 SW 12 16 1019.3 - 0.0 - - - - - - -
22/04:30am 12.4 SW 13 17 1019.5 - 0.0 - - - - - - -
22/04:00am 12.1 WSW 13 17 1019.7 - 0.0 - - - - - - -
22/03:30am 11.5 SW 13 17 1019.8 - 0.0 - - - - - - -
22/03:00am 11.9 SW 13 21 1020.1 - 0.0 - - - - - - -
22/02:30am 12.1 WSW 13 18 1020.2 - 0.0 - - - - - - -
22/02:00am 12.5 WSW 11 16 1020.6 - 0.0 - - - - - - -
22/01:30am 12.3 WSW 13 17 1021.3 - 0.0 - - - - - - -
22/01:00am 12.3 SW 15 21 1021.6 - 0.0 - - - - - - -
22/12:30am 12.7 WSW 14 19 1021.7 - 0.0 - - - - - - -
22/12:00am 12.3 SW 15 21 1021.9 - 0.0 - - - - - - -
 
Date/Time
EDT
Temp
°C
Wind Pressure Rain since
9am
mm
Weather Cloud Vis
km
Sea
Height
m
Swell
Dir  Spd
kts
Gust
kts
hPa Trend Height
m
Period
s
Dir
21/11:30pm 11.9 SW 16 21 1022.1 - 0.0 - - - - - - -
21/11:00pm 11.7 WSW 16 21 1022.5 - 0.0 - - - - - - -
21/10:30pm 11.8 WSW 12 19 1022.6 - 0.0 - - - - - - -
21/10:00pm 12.8 WSW 15 22 1022.7 - 0.0 - - - - - - -
21/09:30pm 12.3 W 12 18 1022.8 - 0.0 - - - - - - -
21/09:00pm 12.9 WSW 12 17 1023.0 - 0.0 - - - - - - -
21/08:30pm 12.5 WSW 14 17 1023.1 - 0.0 - - - - - - -
21/08:00pm 12.8 WSW 12 15 1023.1 - 0.0 - - - - - - -
21/07:30pm 12.6 WSW 14 17 1023.1 - 0.0 - - - - - - -
21/07:00pm 12.8 WSW 13 18 1023.1 - 0.0 - - - - - - -
21/06:30pm 12.6 WSW 17 23 1023.3 - 0.0 - - - - - - -
21/06:00pm 13.4 WSW 15 20 1023.4 - 0.0 - - - - - - -
21/05:30pm 12.9 SW 16 22 1023.5 - 0.0 - - - - - - -
21/05:00pm 14.2 WSW 15 20 1023.7 - 0.0 - - - - - - -
21/04:30pm 13.1 WSW 15 18 1024.1 - 0.0 - - - - - - -
21/04:00pm 13.9 WSW 14 20 1024.2 - 0.0 - - - - - - -
21/03:30pm 13.9 WSW 15 18 1024.5 - 0.0 - - - - - - -
21/03:00pm 13.9 WSW 15 20 1024.9 - 0.0 - - - - - - -
21/02:30pm 14.4 WSW 14 19 1025.1 - 0.0 - - - - - - -
21/02:00pm 13.9 WSW 13 18 1025.3 - 0.0 - - - - - - -
21/01:30pm 13.4 WSW 12 16 1025.4 - 0.0 - - - - - - -
21/01:00pm 14.1 WSW 12 16 1025.9 - 0.0 - - - - - - -
21/12:30pm 13.9 WSW 14 19 1026.2 - 0.0 - - - - - - -
21/12:00pm 12.7 WSW 14 18 1026.6 - 0.0 - - - - - - -
21/11:30am 13.2 SW 12 17 1026.9 - 0.0 - - - - - - -
21/11:00am 12.7 SW 14 19 1027.2 - 0.0 - - - - - - -
21/10:30am 12.6 WSW 13 16 1027.4 - 0.0 - - - - - - -
21/10:00am 12.9 SW 11 15 1027.3 - 0.0 - - - - - - -
21/09:30am 12.5 SW 8 11 1027.4 - 0.0 - - - - - - -
21/09:00am 11.8 SW 15 19 1027.5 - 0.2 - - - - - - -
21/08:30am 11.7 WSW 12 18 1027.5 - 0.2 - - - - - - -
21/08:00am 11.4 SW 10 14 1027.2 - 0.2 - - - - - - -
21/07:30am 11.7 SW 11 17 1027.2 - 0.2 - - - - - - -
21/07:00am 11.6 SW 10 15 1027.2 - 0.2 - - - - - - -
21/06:30am 11.6 SSW 11 17 1027.1 - 0.2 - - - - - - -
21/06:00am 11.8 SW 12 19 1027.0 - 0.2 - - - - - - -
21/05:30am 11.9 SW 10 15 1027.2 - 0.2 - - - - - - -
21/05:00am 11.9 SW 11 15 1027.3 - 0.2 - - - - - - -
21/04:30am 12.1 SW 10 14 1027.3 - 0.2 - - - - - - -
21/04:00am 11.9 SW 11 16 1027.6 - 0.2 - - - - - - -
21/03:30am 11.9 SW 10 16 1027.9 - 0.2 - - - - - - -
21/03:00am 11.9 SW 11 17 1028.1 - 0.2 - - - - - - -
21/02:30am 12.3 SW 11 15 1028.3 - 0.2 - - - - - - -
21/02:00am 12.1 SW 8 12 1028.8 - 0.2 - - - - - - -
21/01:30am 11.9 SW 10 14 1029.3 - 0.2 - - - - - - -
21/01:00am 12.1 SSW 10 15 1029.5 - 0.2 - - - - - - -
21/12:30am 12.0 SSW 10 15 1029.6 - 0.2 - - - - - - -
21/12:00am 12.0 SW 10 15 1029.9 - 0.2 - - - - - - -
 
Date/Time
EDT
Temp
°C
Wind Pressure Rain since
9am
mm
Weather Cloud Vis
km
Sea
Height
m
Swell
Dir  Spd
kts
Gust
kts
hPa Trend Height
m
Period
s
Dir
20/11:30pm 11.9 SW 8 10 1030.2 - 0.2 - - - - - - -
20/11:00pm 11.9 SW 11 17 1030.4 - 0.2 - - - - - - -
20/10:30pm 12.1 SW 10 15 1030.3 - 0.2 - - - - - - -
20/10:00pm 12.0 SSW 9 12 1030.5 - 0.2 - - - - - - -
20/09:30pm 12.0 SSW 11 17 1030.7 - 0.2 - - - - - - -
20/09:00pm 11.9 SSW 9 12 1030.8 - 0.2 - - - - - - -
20/08:30pm 11.9 S 10 15 1030.7 - 0.2 - - - - - - -
20/08:00pm 11.9 SSW 10 15 1030.4 - 0.2 - - - - - - -
20/07:30pm 12.1 SSW 10 15 1030.2 - 0.2 - - - - - - -
20/07:00pm 12.0 SSW 11 15 1030.1 - 0.2 - - - - - - -
20/06:30pm 12.2 SSW 11 17 1030.2 - 0.2 - - - - - - -
20/06:00pm 12.6 SSW 12 16 1030.0 - 0.2 - - - - - - -
20/05:30pm 12.6 SSW 11 17 1029.9 - 0.2 - - - - - - -
20/05:00pm 12.6 SSW 12 17 1029.9 - 0.2 - - - - - - -
20/04:30pm 12.8 SW 13 18 1030.1 - 0.2 - - - - - - -
20/04:00pm 12.8 SSW 12 17 1030.1 - 0.2 - - - - - - -
20/03:30pm 13.7 SSW 12 17 1030.1 - 0.2 - - - - - - -
20/03:00pm 13.7 SSW 12 17 1030.2 - 0.2 - - - - - - -
20/02:30pm 13.9 SSW 13 17 1030.4 - 0.2 - - - - - - -
20/02:00pm 13.5 SSW 12 17 1030.3 - 0.2 - - - - - - -
20/01:30pm 14.3 SW 13 17 1030.3 - 0.2 - - - - - - -
20/01:00pm 14.1 SSW 14 18 1030.3 - 0.2 - - - - - - -
20/12:30pm 14.2 SSW 11 16 1030.2 - 0.2 - - - - - - -
20/12:00pm 14.3 SSW 12 17 1030.3 - 0.0 - - - - - - -
20/11:30am 13.5 SSW 11 16 1030.2 - 0.0 - - - - - - -
20/11:00am 13.3 SSW 11 18 1030.1 - 0.0 - - - - - - -
20/10:30am 14.6 SSW 11 17 1029.8 - 0.0 - - - - - - -
20/10:00am 13.4 SSW 12 17 1029.4 - 0.0 - - - - - - -
20/09:30am 13.5 SSW 13 19 1029.1 - 0.0 - - - - - - -
20/09:00am 13.2 SSW 13 18 1028.8 - 0.4 - - - - - - -
20/08:30am 12.4 SSW 14 23 1028.3 - 0.4 - - - - - - -
20/08:00am 12.5 SSW 12 21 1027.9 - 0.4 - - - - - - -
20/07:30am 12.4 SSW 14 17 1027.4 - 0.4 - - - - - - -
20/07:00am 12.1 SW 15 22 1027.0 - 0.4 - - - - - - -
20/06:30am 12.7 SSW 14 20 1026.4 - 0.4 - - - - - - -
20/06:00am 12.2 SW 15 21 1026.1 - 0.4 - - - - - - -
20/05:30am 12.1 SW 17 21 1025.8 - 0.4 - - - - - - -
20/05:00am 12.4 SW 18 25 1025.6 - 0.4 - - - - - - -
20/04:30am 12.4 SW 18 23 1025.3 - 0.4 - - - - - - -

Other Formats:

Comma delimited format used in spreadsheet applications
http://www.bom.gov.au/fwo/IDV60701/IDV60701.94830.axf

JavaScript Object Notation format (JSON) in row-major order
http://www.bom.gov.au/fwo/IDV60701/IDV60701.94830.json